Time;durP1;ratioP1;P1;durP2;ratioP2;P2;SDS_P1;SDS_P2;PMS_P1;PMS_P2;Temp;Humidity;BMP_temperature;BMP_pressure;BME280_temperature;BME280_humidity;BME280_pressure;Samples;Min_cycle;Max_cycle;Signal;HPM_P1;HPM_P2
2023/03/11 00:01:28;;;;;;;4.72;3.55;;;1.50;99.90;;;;;;4693023;28;10000613;-70
2023/03/11 00:04:01;;;;;;;5.25;3.83;;;;;;;;;;5041414;28;20424;-70
2023/03/11 00:06:30;;;;;;;5.10;3.85;;;;;;;;;;5045332;28;20029;-70
2023/03/11 00:09:06;;;;;;;5.22;3.70;;;;;;;;;;5053681;28;20032;-70
2023/03/11 00:11:34;;;;;;;5.82;3.67;;;1.90;99.90;;;;;;5057706;28;20033;-70
2023/03/11 00:14:06;;;;;;;6.05;4.13;;;;;;;;;;5044175;28;20060;-70
2023/03/11 00:16:38;;;;;;;4.88;3.28;;;1.60;99.90;;;;;;5045181;28;20039;-70
2023/03/11 00:19:12;;;;;;;5.18;3.55;;;1.60;99.90;;;;;;5046968;28;20036;-70
2023/03/11 00:21:52;;;;;;;4.43;3.20;;;1.60;99.90;;;;;;5045217;28;20035;-71
2023/03/11 00:24:25;;;;;;;4.78;3.60;;;1.50;99.90;;;;;;5045831;28;20037;-70
2023/03/11 00:26:51;;;;;;;6.07;3.72;;;1.50;99.90;;;;;;5043799;28;20033;-70
2023/03/11 00:29:20;;;;;;;4.60;3.40;;;1.50;99.90;;;;;;5041671;28;20056;-70
2023/03/11 00:31:54;;;;;;;5.97;3.67;;;1.50;99.90;;;;;;5039014;28;20060;-70
2023/03/11 00:34:27;;;;;;;5.03;3.05;;;1.50;99.90;;;;;;5050579;28;20029;-70
2023/03/11 00:37:01;;;;;;;4.57;3.20;;;1.50;99.90;;;;;;5039975;28;20115;-70
2023/03/11 00:39:35;;;;;;;3.95;2.97;;;1.40;99.90;;;;;;5039691;28;20036;-70
2023/03/11 00:42:13;;;;;;;4.75;3.50;;;1.40;99.90;;;;;;5045873;28;20544;-70
2023/03/11 00:44:48;;;;;;;4.50;3.08;;;1.40;99.90;;;;;;5050952;28;20134;-70
2023/03/11 00:47:27;;;;;;;5.22;3.30;;;1.40;99.90;;;;;;5046763;28;20027;-70
2023/03/11 00:49:57;;;;;;;4.78;3.63;;;1.40;99.90;;;;;;5056648;28;20421;-70
2023/03/11 00:52:30;;;;;;;5.60;3.50;;;1.40;99.90;;;;;;5042767;28;20045;-71
2023/03/11 00:55:01;;;;;;;6.05;3.67;;;1.40;99.90;;;;;;5043342;28;20033;-71
2023/03/11 00:57:40;;;;;;;6.68;4.10;;;1.40;99.90;;;;;;5042369;28;20038;-71
2023/03/11 01:00:16;;;;;;;4.88;3.47;;;1.40;99.90;;;;;;5052553;28;20517;-71
2023/03/11 01:02:46;;;;;;;4.70;3.13;;;1.40;99.90;;;;;;5035713;28;20445;-71
2023/03/11 01:05:12;;;;;;;4.18;2.92;;;1.30;99.90;;;;;;5052894;28;20048;-71
2023/03/11 01:07:38;;;;;;;3.78;2.92;;;1.30;99.90;;;;;;5045945;28;20052;-70
2023/03/11 01:10:15;;;;;;;3.97;2.80;;;;;;;;;;5055762;28;20098;-70
2023/03/11 01:12:44;;;;;;;3.97;3.13;;;;;;;;;;5052231;28;20496;-71
2023/03/11 01:15:28;;;;;;;4.63;3.10;;;1.40;99.90;;;;;;5036791;28;20022;-70
2023/03/11 01:18:02;;;;;;;4.35;2.80;;;1.40;99.90;;;;;;5048629;28;20068;-71
2023/03/11 01:20:34;;;;;;;3.45;2.85;;;1.40;99.90;;;;;;5034923;28;20080;-71
2023/03/11 01:23:02;;;;;;;3.20;2.60;;;1.40;99.90;;;;;;5049607;28;20389;-70
2023/03/11 01:25:30;;;;;;;3.90;2.90;;;;;;;;;;5054903;28;20569;-71
2023/03/11 01:28:05;;;;;;;4.38;3.30;;;1.30;99.90;;;;;;5041000;28;20107;-71
2023/03/11 01:30:30;;;;;;;3.58;2.83;;;1.30;99.90;;;;;;5044369;28;20057;-71
2023/03/11 01:32:58;;;;;;;3.92;2.88;;;1.30;99.90;;;;;;5041792;28;20452;-70
2023/03/11 01:35:29;;;;;;;3.35;2.63;;;1.30;99.90;;;;;;5040303;28;20048;-70
2023/03/11 01:37:58;;;;;;;4.07;3.10;;;1.30;99.90;;;;;;5048530;28;20033;-71
2023/03/11 01:40:51;;;;;;;3.42;2.67;;;1.30;99.90;;;;;;5048154;28;20037;-71
2023/03/11 01:43:39;;;;;;;3.60;2.00;;;;;;;;;;5040656;28;20036;-70
2023/03/11 01:46:13;;;;;;;4.57;3.00;;;;;;;;;;5047745;28;20035;-71
2023/03/11 01:48:41;;;;;;;4.28;2.88;;;1.20;99.90;;;;;;5046289;28;20261;-70
2023/03/11 01:51:07;;;;;;;4.85;3.20;;;1.30;99.90;;;;;;5044328;28;20025;-70
2023/03/11 01:53:35;;;;;;;3.08;2.78;;;1.30;99.90;;;;;;5047493;28;20076;-71
2023/03/11 01:56:07;;;;;;;5.38;2.88;;;1.30;99.90;;;;;;5048773;28;20025;-71
2023/03/11 01:58:40;;;;;;;3.78;2.90;;;1.30;99.90;;;;;;5034948;28;20029;-71
2023/03/11 02:01:07;;;;;;;3.78;2.72;;;1.30;99.90;;;;;;5045870;28;20028;-71
2023/03/11 02:03:42;;;;;;;6.82;3.03;;;1.30;99.90;;;;;;5047927;28;20056;-71
2023/03/11 02:06:20;;;;;;;3.53;2.90;;;1.30;99.90;;;;;;5043670;28;20033;-71
2023/03/11 02:08:57;;;;;;;4.45;3.03;;;1.30;99.90;;;;;;5048542;28;20501;-71
2023/03/11 02:11:34;;;;;;;4.68;2.95;;;1.30;99.90;;;;;;5046173;28;20032;-71
2023/03/11 02:14:08;;;;;;;5.45;2.97;;;1.30;99.90;;;;;;5053875;28;20033;-71
2023/03/11 02:16:41;;;;;;;4.18;2.90;;;1.20;99.90;;;;;;5053825;28;20029;-71
2023/03/11 02:19:29;;;;;;;5.60;3.20;;;1.30;99.90;;;;;;5052716;28;20024;-71
2023/03/11 02:21:57;;;;;;;4.50;2.95;;;1.40;99.90;;;;;;5047578;28;20393;-71
2023/03/11 02:25:08;;;;;;;4.72;2.70;;;1.40;99.90;;;;;;5040367;28;20383;-70
2023/03/11 02:27:43;;;;;;;5.20;3.08;;;1.40;99.90;;;;;;5051615;28;20029;-71
2023/03/11 02:30:15;;;;;;;4.60;2.83;;;1.40;99.90;;;;;;5052177;28;20031;-71
2023/03/11 02:32:50;;;;;;;4.25;2.88;;;1.30;99.90;;;;;;5040819;28;20132;-71
2023/03/11 02:35:25;;;;;;;3.88;2.97;;;1.30;99.90;;;;;;5045567;28;20379;-70
2023/03/11 02:38:01;;;;;;;3.63;3.00;;;1.30;99.90;;;;;;5042396;28;20033;-70
2023/03/11 02:40:52;;;;;;;5.00;3.35;;;1.30;99.90;;;;;;5049966;28;20506;-70
2023/03/11 02:43:32;;;;;;;5.72;3.00;;;1.30;99.90;;;;;;5052049;28;20033;-70
2023/03/11 02:46:08;;;;;;;6.57;3.25;;;1.30;99.90;;;;;;5037669;28;20064;-70
2023/03/11 02:48:43;;;;;;;5.72;3.22;;;1.30;99.90;;;;;;5038846;28;20033;-71
2023/03/11 02:51:16;;;;;;;7.60;3.35;;;1.40;99.90;;;;;;5043024;28;20407;-70
2023/03/11 02:53:49;;;;;;;6.10;3.28;;;1.40;99.90;;;;;;5043448;28;20045;-71
2023/03/11 02:56:25;;;;;;;5.55;3.10;;;1.40;99.90;;;;;;5038933;28;20033;-71
2023/03/11 02:58:55;;;;;;;5.45;3.10;;;1.50;99.90;;;;;;5045434;28;20033;-71
2023/03/11 03:01:28;;;;;;;4.15;2.80;;;1.40;99.90;;;;;;5040069;28;20053;-70
2023/03/11 03:04:05;;;;;;;5.70;3.05;;;1.40;99.90;;;;;;5043496;28;20100;-71
2023/03/11 03:06:40;;;;;;;7.32;2.83;;;1.30;99.90;;;;;;5046885;28;20033;-71
2023/03/11 03:09:11;;;;;;;9.93;2.97;;;1.30;99.90;;;;;;5047977;28;20029;-71
2023/03/11 03:11:47;;;;;;;5.55;2.55;;;1.20;99.90;;;;;;5044506;28;20397;-71
2023/03/11 03:14:15;;;;;;;7.20;3.08;;;1.30;99.90;;;;;;5037521;28;20087;-71
2023/03/11 03:16:48;;;;;;;4.55;2.83;;;1.30;99.90;;;;;;5039892;28;20036;-71
2023/03/11 03:19:18;;;;;;;6.00;3.27;;;1.30;99.90;;;;;;5045644;28;20040;-71
2023/03/11 03:21:48;;;;;;;6.18;3.25;;;1.30;99.90;;;;;;5038577;28;20407;-71
2023/03/11 03:24:17;;;;;;;5.60;3.55;;;1.30;99.90;;;;;;5034365;28;20037;-72
2023/03/11 03:26:50;;;;;;;3.78;2.80;;;1.20;99.90;;;;;;5032269;28;20124;-71
2023/03/11 03:29:22;;;;;;;5.82;3.25;;;1.20;99.90;;;;;;5036509;28;20033;-72
2023/03/11 03:31:58;;;;;;;5.05;3.25;;;1.20;99.90;;;;;;5042463;28;20037;-71
2023/03/11 03:34:29;;;;;;;4.72;3.22;;;1.20;99.90;;;;;;5047249;28;20033;-71
2023/03/11 03:37:01;;;;;;;5.90;3.40;;;1.10;99.90;;;;;;5034254;28;20044;-71
2023/03/11 03:39:38;;;;;;;5.03;3.33;;;1.10;99.90;;;;;;5040145;28;20025;-71
2023/03/11 03:42:09;;;;;;;11.18;3.80;;;1.10;99.90;;;;;;5042476;28;20082;-71
2023/03/11 03:44:41;;;;;;;9.00;3.70;;;1.10;99.90;;;;;;5044485;28;20673;-71
2023/03/11 03:47:16;;;;;;;5.05;3.25;;;1.10;99.90;;;;;;5041764;28;20046;-71
2023/03/11 03:49:48;;;;;;;7.25;3.20;;;1.10;99.90;;;;;;5043471;28;20031;-71
2023/03/11 03:52:20;;;;;;;5.82;3.38;;;1.10;99.90;;;;;;5045630;28;20113;-71
2023/03/11 03:54:46;;;;;;;6.50;3.70;;;1.00;99.90;;;;;;5047653;28;20036;-71
2023/03/11 03:57:21;;;;;;;7.82;3.22;;;1.10;99.90;;;;;;5041369;28;20067;-71
2023/03/11 03:59:53;;;;;;;9.70;3.83;;;1.10;99.90;;;;;;5046934;28;20041;-71
2023/03/11 04:02:22;;;;;;;5.97;3.10;;;1.10;99.90;;;;;;5043102;28;20048;-71
2023/03/11 04:04:50;;;;;;;6.53;3.47;;;1.10;99.90;;;;;;5039382;28;20179;-71
2023/03/11 04:07:20;;;;;;;7.00;2.95;;;1.10;99.90;;;;;;5044987;28;20048;-71
2023/03/11 04:09:49;;;;;;;6.00;2.92;;;1.10;99.90;;;;;;5031897;28;20029;-71
2023/03/11 04:12:26;;;;;;;10.73;4.38;;;1.10;99.90;;;;;;5038850;28;20029;-71
2023/03/11 04:14:59;;;;;;;6.57;3.50;;;1.10;99.90;;;;;;5046419;28;20033;-71
2023/03/11 04:17:30;;;;;;;6.10;3.40;;;1.10;99.90;;;;;;5050962;28;20059;-71
2023/03/11 04:19:56;;;;;;;6.07;3.28;;;1.10;99.90;;;;;;5046559;28;20607;-71
2023/03/11 04:22:30;;;;;;;7.97;3.33;;;1.10;99.90;;;;;;5045811;28;20627;-71
2023/03/11 04:24:56;;;;;;;8.50;2.53;;;1.10;99.90;;;;;;5053181;28;20070;-71
2023/03/11 04:27:28;;;;;;;7.05;3.28;;;1.10;99.90;;;;;;5055908;28;20025;-71
2023/03/11 04:30:01;;;;;;;4.63;2.33;;;1.00;99.90;;;;;;5050237;28;20045;-72
2023/03/11 04:32:35;;;;;;;8.35;3.05;;;1.00;99.90;;;;;;5050132;28;20398;-71
2023/03/11 04:35:01;;;;;;;8.05;3.10;;;1.00;99.90;;;;;;5033451;28;20043;-71
2023/03/11 04:37:32;;;;;;;7.38;3.53;;;1.00;99.90;;;;;;5042197;28;20036;-71
2023/03/11 04:40:05;;;;;;;7.72;3.47;;;0.90;99.90;;;;;;5044591;28;20489;-71
2023/03/11 04:42:38;;;;;;;7.35;3.05;;;1.00;99.90;;;;;;5042062;28;20032;-71
2023/03/11 04:45:10;;;;;;;4.65;2.58;;;0.90;99.90;;;;;;5040488;28;20433;-72
2023/03/11 04:47:39;;;;;;;6.05;2.65;;;1.00;99.90;;;;;;5052730;28;20028;-71
2023/03/11 04:50:07;;;;;;;11.55;3.65;;;1.00;99.90;;;;;;5042108;28;20029;-71
2023/03/11 04:52:40;;;;;;;6.28;3.17;;;1.00;99.90;;;;;;5056231;28;20397;-71
2023/03/11 04:55:12;;;;;;;5.97;3.35;;;1.00;99.90;;;;;;5045595;28;20029;-71
2023/03/11 04:57:39;;;;;;;9.23;4.20;;;1.00;99.90;;;;;;5051081;28;20079;-71
2023/03/11 05:00:09;;;;;;;6.55;3.45;;;0.90;99.90;;;;;;5038945;28;20049;-71
2023/03/11 05:02:38;;;;;;;8.13;3.58;;;0.90;99.90;;;;;;5038939;28;20028;-70
2023/03/11 05:05:08;;;;;;;8.98;3.60;;;0.90;99.90;;;;;;5044912;28;20055;-71
2023/03/11 05:07:41;;;;;;;7.80;4.00;;;0.90;99.90;;;;;;5040227;28;20555;-71
2023/03/11 05:10:09;;;;;;;7.38;3.35;;;0.90;99.90;;;;;;5044957;28;20064;-71
2023/03/11 05:12:37;;;;;;;5.85;3.60;;;0.90;99.90;;;;;;5045494;28;20038;-71
2023/03/11 05:15:04;;;;;;;9.30;3.75;;;0.90;99.90;;;;;;5049787;28;20028;-71
2023/03/11 05:17:37;;;;;;;7.25;3.75;;;0.90;99.90;;;;;;5047106;28;20056;-71
2023/03/11 05:20:10;;;;;;;6.28;3.80;;;0.90;99.90;;;;;;5052612;28;20378;-71
2023/03/11 05:22:36;;;;;;;10.02;3.90;;;0.90;99.90;;;;;;5042720;28;20080;-71
2023/03/11 05:25:08;;;;;;;11.02;3.90;;;0.90;99.90;;;;;;5057691;28;20528;-70
2023/03/11 05:27:43;;;;;;;6.85;3.03;;;0.90;99.90;;;;;;5052330;28;20025;-71
2023/03/11 05:30:14;;;;;;;10.13;4.15;;;0.90;99.90;;;;;;5040822;28;20086;-71
2023/03/11 05:32:46;;;;;;;11.65;3.95;;;0.80;99.90;;;;;;5054984;28;20396;-71
2023/03/11 05:35:23;;;;;;;7.90;3.85;;;0.90;99.90;;;;;;5046762;28;20025;-71
2023/03/11 05:37:49;;;;;;;7.22;3.70;;;0.90;99.90;;;;;;5053710;28;20618;-71
2023/03/11 05:40:16;;;;;;;6.93;3.58;;;0.90;99.90;;;;;;5057117;28;20039;-71
2023/03/11 05:42:51;;;;;;;5.07;3.33;;;0.80;99.90;;;;;;5048537;28;20111;-71
2023/03/11 05:45:26;;;;;;;7.25;3.60;;;0.80;99.90;;;;;;5068171;28;20116;-71
2023/03/11 05:47:56;;;;;;;8.48;3.70;;;0.90;99.90;;;;;;5045549;28;20033;-71
2023/03/11 05:50:33;;;;;;;7.05;4.10;;;0.90;99.90;;;;;;5046782;28;20032;-71
2023/03/11 05:53:01;;;;;;;6.97;3.67;;;0.90;99.90;;;;;;5041098;28;20135;-71
2023/03/11 05:55:40;;;;;;;7.00;3.67;;;1.00;99.90;;;;;;5042423;28;20025;-71
2023/03/11 05:58:09;;;;;;;9.45;3.95;;;1.00;99.90;;;;;;5056068;28;20689;-71
2023/03/11 06:00:35;;;;;;;8.43;4.05;;;1.00;99.90;;;;;;5048352;28;20040;-71
2023/03/11 06:03:04;;;;;;;7.07;3.70;;;1.00;99.90;;;;;;5049729;28;20082;-71
2023/03/11 06:05:30;;;;;;;8.88;3.92;;;1.00;99.90;;;;;;5041929;28;20021;-70
2023/03/11 06:08:05;;;;;;;5.88;3.53;;;1.00;99.90;;;;;;5037586;28;20029;-71
2023/03/11 06:10:39;;;;;;;11.02;4.15;;;1.00;99.90;;;;;;5042638;28;20036;-71
2023/03/11 06:13:09;;;;;;;9.38;3.63;;;1.00;99.90;;;;;;5044648;28;20498;-70
2023/03/11 06:15:37;;;;;;;7.40;3.53;;;1.00;99.90;;;;;;5058988;28;20035;-70
2023/03/11 06:18:09;;;;;;;10.45;3.67;;;1.00;99.90;;;;;;5049467;28;20490;-71
2023/03/11 06:20:41;;;;;;;8.13;3.83;;;1.00;99.90;;;;;;5041358;28;20441;-71
2023/03/11 06:23:07;;;;;;;7.83;3.10;;;1.10;99.90;;;;;;5048900;28;20033;-70
2023/03/11 06:25:36;;;;;;;8.68;3.75;;;1.00;99.90;;;;;;5040196;28;20272;-70
2023/03/11 06:28:12;;;;;;;10.18;3.67;;;1.10;99.90;;;;;;5036994;28;20461;-70
2023/03/11 06:30:45;;;;;;;8.68;3.60;;;1.00;99.90;;;;;;5054710;28;20029;-71
2023/03/11 06:33:17;;;;;;;8.05;3.53;;;1.00;99.90;;;;;;5055008;28;20130;-71
2023/03/11 06:35:44;;;;;;;6.25;3.30;;;1.00;99.90;;;;;;5038830;28;20929;-70
2023/03/11 06:38:16;;;;;;;13.40;4.03;;;1.00;99.90;;;;;;5043288;28;20025;-70
2023/03/11 06:40:54;;;;;;;7.43;3.20;;;1.10;99.90;;;;;;5040613;28;20037;-70
2023/03/11 06:43:22;;;;;;;8.88;3.30;;;1.10;99.90;;;;;;5045718;28;20021;-70
2023/03/11 06:45:57;;;;;;;8.40;3.90;;;1.10;99.90;;;;;;5046661;28;20029;-70
2023/03/11 06:48:25;;;;;;;8.63;3.53;;;1.10;99.90;;;;;;5029913;28;20188;-71
2023/03/11 06:50:59;;;;;;;10.15;3.92;;;1.10;99.90;;;;;;5040820;28;20397;-70
2023/03/11 06:53:26;;;;;;;8.32;3.55;;;1.10;99.90;;;;;;5037189;28;20045;-71
2023/03/11 06:56:12;;;;;;;10.02;3.25;;;1.10;99.90;;;;;;5047637;28;20036;-71
2023/03/11 06:58:40;;;;;;;13.55;4.03;;;1.00;99.90;;;;;;5041744;28;20060;-71
2023/03/11 07:01:13;;;;;;;11.18;3.30;;;1.10;99.90;;;;;;5052193;28;20104;-71
2023/03/11 07:03:39;;;;;;;9.65;3.47;;;;;;;;;;5039439;28;20035;-71
2023/03/11 07:06:05;;;;;;;8.07;3.58;;;1.10;99.90;;;;;;5039070;28;20021;-71
2023/03/11 07:08:32;;;;;;;7.63;3.10;;;1.10;99.90;;;;;;5050393;28;20428;-71
2023/03/11 07:11:02;;;;;;;6.68;3.50;;;1.10;99.90;;;;;;5044877;28;20024;-71
2023/03/11 07:13:28;;;;;;;11.68;2.92;;;1.20;99.90;;;;;;5038013;28;20400;-71
2023/03/11 07:16:03;;;;;;;7.07;3.53;;;1.20;99.90;;;;;;5040316;28;20033;-71
2023/03/11 07:18:31;;;;;;;7.35;2.80;;;1.30;99.90;;;;;;5047277;28;20485;-71
2023/03/11 07:21:00;;;;;;;9.50;3.28;;;1.30;99.90;;;;;;5050302;28;20032;-71
2023/03/11 07:23:26;;;;;;;11.07;2.83;;;1.40;99.90;;;;;;5046414;28;20481;-71
2023/03/11 07:25:54;;;;;;;5.57;2.72;;;1.40;99.90;;;;;;5060161;28;20143;-71
2023/03/11 07:28:21;;;;;;;11.20;2.97;;;1.40;99.90;;;;;;5042272;28;20056;-70
2023/03/11 07:30:47;;;;;;;7.30;2.65;;;1.40;99.90;;;;;;5052291;28;20210;-71
2023/03/11 07:33:21;;;;;;;8.73;3.10;;;1.40;99.90;;;;;;5045570;28;20033;-71
2023/03/11 07:35:48;;;;;;;7.97;2.85;;;1.50;99.90;;;;;;5049685;28;20097;-71
2023/03/11 07:38:24;;;;;;;12.57;3.00;;;1.40;99.90;;;;;;5047424;28;20036;-71
2023/03/11 07:41:01;;;;;;;5.68;2.40;;;1.40;99.90;;;;;;5045605;28;20064;-71
2023/03/11 07:43:27;;;;;;;8.25;2.63;;;1.40;99.90;;;;;;5033182;28;20385;-71
2023/03/11 07:46:03;;;;;;;4.20;2.38;;;1.40;99.90;;;;;;5041783;28;20037;-71
2023/03/11 07:48:29;;;;;;;7.72;2.80;;;1.40;99.90;;;;;;5046138;28;20480;-71
2023/03/11 07:51:09;;;;;;;7.18;3.05;;;1.40;99.90;;;;;;5047769;28;20038;-71
2023/03/11 07:53:35;;;;;;;6.88;2.90;;;1.40;99.90;;;;;;5038764;28;20048;-71
2023/03/11 07:56:02;;;;;;;7.28;2.45;;;1.40;99.90;;;;;;5037583;28;20040;-71
2023/03/11 07:58:35;;;;;;;5.53;2.30;;;1.50;99.90;;;;;;5048967;28;20032;-71
2023/03/11 08:01:10;;;;;;;4.90;2.20;;;1.60;99.90;;;;;;5054473;28;20512;-71
2023/03/11 08:03:40;;;;;;;7.68;2.30;;;1.70;99.90;;;;;;5049720;28;20025;-71
2023/03/11 08:06:20;;;;;;;11.95;2.70;;;1.80;99.90;;;;;;5053074;28;20037;-71
2023/03/11 08:08:48;;;;;;;6.93;2.05;;;1.80;99.90;;;;;;5050961;28;20477;-70
2023/03/11 08:11:19;;;;;;;7.07;2.35;;;1.90;99.90;;;;;;5038766;28;20112;-71
2023/03/11 08:13:46;;;;;;;8.27;2.50;;;2.00;99.90;;;;;;5052576;28;20032;-71
2023/03/11 08:16:17;;;;;;;7.53;2.38;;;2.10;99.90;;;;;;5043958;28;20039;-71
2023/03/11 08:18:46;;;;;;;6.80;3.15;;;2.10;99.90;;;;;;5045654;28;20075;-71
2023/03/11 08:21:17;;;;;;;6.15;2.33;;;2.10;99.90;;;;;;5046706;28;20024;-71
2023/03/11 08:23:44;;;;;;;10.18;2.67;;;2.20;99.90;;;;;;5042652;28;20041;-71
2023/03/11 08:26:16;;;;;;;8.23;2.30;;;2.10;99.90;;;;;;5043756;28;20379;-71
2023/03/11 08:28:43;;;;;;;6.13;2.80;;;2.10;99.90;;;;;;5041394;28;20033;-71
2023/03/11 08:31:17;;;;;;;6.22;1.80;;;2.10;99.90;;;;;;5058171;28;20056;-71
2023/03/11 08:33:48;;;;;;;5.75;1.80;;;2.20;99.90;;;;;;5039893;28;20717;-71
2023/03/11 08:36:15;;;;;;;7.13;2.22;;;2.20;99.90;;;;;;5040088;28;20032;-71
2023/03/11 08:38:41;;;;;;;6.55;2.10;;;2.20;99.90;;;;;;5039695;28;20590;-71
2023/03/11 08:41:07;;;;;;;7.72;2.17;;;2.30;99.90;;;;;;5038453;28;20043;-71
2023/03/11 08:43:34;;;;;;;5.50;2.17;;;2.40;99.90;;;;;;4337382;28;10000932;-71
2023/03/11 08:46:02;;;;;;;8.30;1.90;;;2.60;99.90;;;;;;5021633;28;20042;-72
2023/03/11 08:48:28;;;;;;;4.18;1.80;;;2.70;99.90;;;;;;5026649;28;20484;-71
2023/03/11 08:50:55;;;;;;;6.00;1.92;;;2.80;99.90;;;;;;5027431;28;20128;-71
2023/03/11 08:53:21;;;;;;;5.00;1.80;;;2.90;99.90;;;;;;5027433;28;20081;-71
2023/03/11 08:55:49;;;;;;;6.00;1.60;;;2.90;99.90;;;;;;5029272;28;20095;-71
2023/03/11 08:58:15;;;;;;;3.10;1.50;;;2.90;99.90;;;;;;5034798;28;20940;-71
2023/03/11 09:00:41;;;;;;;10.35;2.20;;;2.80;99.90;;;;;;5029339;28;20037;-71
2023/03/11 09:03:07;;;;;;;3.55;1.23;;;2.80;99.90;;;;;;5018325;28;20021;-70
2023/03/11 09:05:33;;;;;;;4.03;1.52;;;2.90;99.90;;;;;;5020234;28;20543;-70
2023/03/11 09:07:59;;;;;;;3.90;1.27;;;2.90;99.90;;;;;;5032864;28;20032;-71
2023/03/11 09:10:25;;;;;;;9.77;1.60;;;3.00;99.90;;;;;;5025460;28;20535;-71
2023/03/11 09:12:51;;;;;;;4.22;1.40;;;3.00;99.90;;;;;;5031136;28;20158;-71
2023/03/11 09:15:18;;;;;;;6.38;1.63;;;3.00;99.90;;;;;;5024419;28;20613;-71
2023/03/11 09:17:43;;;;;;;4.93;1.17;;;3.00;99.90;;;;;;5035371;28;20041;-71
2023/03/11 09:20:12;;;;;;;4.43;1.45;;;3.00;99.90;;;;;;5038169;28;20409;-71
2023/03/11 09:22:38;;;;;;;6.90;1.38;;;3.00;99.90;;;;;;5040759;28;20051;-71
2023/03/11 09:25:04;;;;;;;7.93;1.63;;;2.90;99.90;;;;;;5035144;28;20481;-71
2023/03/11 09:27:30;;;;;;;3.45;1.35;;;2.90;99.90;;;;;;5035089;28;20075;-71
2023/03/11 09:29:56;;;;;;;4.00;1.33;;;2.80;99.90;;;;;;5040744;28;20030;-70
2023/03/11 09:32:22;;;;;;;2.45;1.00;;;2.80;99.90;;;;;;5053655;28;20036;-70
2023/03/11 09:34:48;;;;;;;3.90;1.20;;;2.90;99.90;;;;;;5037560;28;20029;-70
2023/03/11 09:37:14;;;;;;;3.92;1.55;;;2.90;99.90;;;;;;5039813;28;20081;-70
2023/03/11 09:39:40;;;;;;;8.05;1.55;;;3.00;99.90;;;;;;5033204;28;20394;-71
2023/03/11 09:42:37;;;;;;;3.60;1.80;;;3.10;99.90;;;;;;5039820;28;20029;-71
2023/03/11 09:45:12;;;;;;;5.20;2.20;;;3.20;99.90;;;;;;5035677;28;20409;-72
2023/03/11 09:47:41;;;;;;;7.00;1.67;;;;;;;;;;5054532;28;20041;-72
2023/03/11 09:50:17;;;;;;;3.33;1.30;;;3.30;99.90;;;;;;5045789;28;20089;-71
2023/03/11 09:52:55;;;;;;;4.57;1.30;;;3.30;99.90;;;;;;5033736;28;20049;-71
2023/03/11 09:55:53;;;;;;;5.80;1.30;;;3.30;99.90;;;;;;5039232;28;20029;-71
2023/03/11 09:58:34;;;;;;;3.35;1.00;;;3.30;99.90;;;;;;5026286;28;20573;-72
2023/03/11 10:01:01;;;;;;;4.65;1.10;;;3.20;99.90;;;;;;5042647;28;20043;-71
2023/03/11 10:03:32;;;;;;;8.18;1.70;;;;;;;;;;5038315;28;20030;-70
2023/03/11 10:06:08;;;;;;;7.35;1.10;;;3.10;99.90;;;;;;5040666;28;20038;-71
2023/03/11 10:08:44;;;;;;;2.88;1.10;;;3.20;99.90;;;;;;5041179;28;21184;-71
2023/03/11 10:11:28;;;;;;;4.55;1.02;;;3.20;99.90;;;;;;5042079;28;20036;-71
2023/03/11 10:14:09;;;;;;;7.20;1.10;;;3.20;99.90;;;;;;5044076;28;20548;-70
2023/03/11 10:17:06;;;;;;;3.67;1.00;;;3.20;99.90;;;;;;5041636;28;20033;-71
2023/03/11 10:19:31;;;;;;;8.02;1.30;;;3.20;99.90;;;;;;5039332;28;20037;-70
2023/03/11 10:22:00;;;;;;;5.05;1.40;;;3.30;99.90;;;;;;5043934;28;20086;-71
2023/03/11 10:25:04;;;;;;;12.48;5.40;;;3.40;99.90;;;;;;5042850;28;20036;-71
2023/03/11 10:27:53;;;;;;;5.75;1.13;;;3.40;99.90;;;;;;5038680;28;20279;-71
2023/03/11 10:30:19;;;;;;;3.92;1.20;;;3.30;99.90;;;;;;5039507;28;20631;-71
2023/03/11 10:32:59;;;;;;;10.40;2.97;;;3.30;99.90;;;;;;5035476;28;20037;-71
2023/03/11 10:35:39;;;;;;;9.88;1.70;;;3.40;99.90;;;;;;5035594;28;20025;-71
2023/03/11 10:38:11;;;;;;;6.15;1.10;;;3.40;99.90;;;;;;5037157;28;20033;-71
2023/03/11 10:40:41;;;;;;;2.78;0.90;;;3.50;99.90;;;;;;5037195;28;20115;-72
2023/03/11 10:43:16;;;;;;;6.35;1.08;;;3.60;99.90;;;;;;5039550;28;20029;-71
2023/03/11 10:45:43;;;;;;;3.75;0.82;;;3.70;99.90;;;;;;5038229;28;20025;-72
2023/03/11 10:48:13;;;;;;;10.18;1.88;;;3.80;99.90;;;;;;5042271;28;20036;-72
2023/03/11 10:50:55;;;;;;;6.43;1.38;;;3.80;99.90;;;;;;5037134;28;20036;-72
2023/03/11 10:53:21;;;;;;;5.78;1.40;;;3.80;99.90;;;;;;5034863;28;20187;-71
2023/03/11 10:55:52;;;;;;;7.43;2.25;;;3.90;99.90;;;;;;5042686;28;20203;-71
2023/03/11 10:58:23;;;;;;;8.05;3.08;;;4.00;99.90;;;;;;5043921;28;20687;-71
2023/03/11 11:01:04;;;;;;;6.40;2.58;;;4.20;99.90;;;;;;5034973;28;20348;-72
2023/03/11 11:03:31;;;;;;;11.95;3.13;;;4.40;99.90;;;;;;5034611;28;20059;-71
2023/03/11 11:06:08;;;;;;;7.75;1.65;;;4.50;99.90;;;;;;5042386;28;20411;-70
2023/03/11 11:08:38;;;;;;;6.28;1.63;;;4.70;99.90;;;;;;4342711;28;10000857;-72
2023/03/11 11:11:23;;;;;;;3.30;1.00;;;5.00;99.90;;;;;;5037343;28;20033;-71
2023/03/11 11:14:00;;;;;;;2.88;1.00;;;5.20;99.90;;;;;;5033648;28;20112;-71
2023/03/11 11:16:31;;;;;;;4.55;1.27;;;5.40;99.90;;;;;;5040060;28;20033;-70
2023/03/11 11:19:14;;;;;;;3.70;1.15;;;5.30;99.90;;;;;;5044621;28;20033;-70
2023/03/11 11:21:51;;;;;;;5.18;1.35;;;5.20;99.90;;;;;;5039971;28;20196;-71
2023/03/11 11:24:27;;;;;;;7.53;1.35;;;5.20;99.90;;;;;;5037667;28;20536;-71
2023/03/11 11:27:04;;;;;;;6.00;1.25;;;;;;;;;;5037593;28;20025;-71
2023/03/11 11:29:36;;;;;;;4.93;1.52;;;;;;;;;;5040388;28;20029;-71
2023/03/11 11:32:20;;;;;;;5.37;1.40;;;;;;;;;;5038267;28;20025;-70
2023/03/11 11:35:13;;;;;;;4.63;1.40;;;;;;;;;;5038810;28;20290;-72
2023/03/11 11:37:54;;;;;;;4.45;1.23;;;;;;;;;;5043416;28;20516;-71
2023/03/11 11:40:28;;;;;;;85.45;40.42;;;;;;;;;;5045545;28;20025;-71
2023/03/11 11:43:05;;;;;;;4.70;2.10;;;6.40;99.90;;;;;;5044759;28;20035;-71
2023/03/11 11:45:45;;;;;;;5.82;1.70;;;6.30;99.90;;;;;;5047727;28;20025;-71
2023/03/11 11:48:24;;;;;;;8.70;2.25;;;6.10;99.90;;;;;;5041932;28;20385;-70
2023/03/11 11:51:03;;;;;;;3.70;1.83;;;5.90;99.90;;;;;;5038085;28;20029;-71
2023/03/11 11:53:45;;;;;;;3.30;1.10;;;;;;;;;;5043582;28;20493;-71
2023/03/11 11:56:17;;;;;;;4.40;1.25;;;5.40;99.90;;;;;;5039810;28;20032;-71
2023/03/11 11:58:49;;;;;;;5.70;1.38;;;5.10;99.90;;;;;;5046811;28;20115;-71
2023/03/11 12:01:20;;;;;;;5.10;2.25;;;5.00;99.90;;;;;;5041228;28;20539;-72
2023/03/11 12:04:12;;;;;;;5.18;1.10;;;4.90;99.90;;;;;;5037064;28;20025;-71
2023/03/11 12:07:18;;;;;;;2.28;1.10;;;4.90;99.90;;;;;;5043981;28;20501;-72
2023/03/11 12:10:23;;;;;;;1.80;0.90;;;4.90;99.90;;;;;;5057361;28;20044;-72
2023/03/11 12:13:10;;;;;;;3.03;0.90;;;5.20;99.90;;;;;;5038032;28;20040;-71
2023/03/11 12:15:48;;;;;;;4.50;1.00;;;5.50;99.90;;;;;;5043873;28;20037;-71
2023/03/11 12:18:29;;;;;;;5.32;1.08;;;5.50;99.90;;;;;;5038959;28;20443;-72
2023/03/11 12:21:04;;;;;;;6.85;1.67;;;5.50;99.90;;;;;;5036458;28;20396;-71
2023/03/11 12:23:49;;;;;;;4.22;1.60;;;5.50;99.90;;;;;;5034802;28;20033;-71
2023/03/11 12:26:25;;;;;;;6.75;1.63;;;5.40;99.90;;;;;;5044494;28;20043;-70
2023/03/11 12:29:13;;;;;;;5.68;1.17;;;5.40;99.90;;;;;;5052421;28;20028;-71
2023/03/11 12:31:44;;;;;;;4.00;1.10;;;5.20;99.90;;;;;;5041164;28;20551;-71
2023/03/11 12:34:13;;;;;;;5.20;1.77;;;5.30;99.90;;;;;;5037598;28;20025;-71
2023/03/11 12:36:42;;;;;;;3.53;1.08;;;5.50;99.90;;;;;;5042953;28;20473;-71
2023/03/11 12:39:45;;;;;;;3.83;1.30;;;5.80;99.90;;;;;;5036357;28;20048;-71
2023/03/11 12:42:17;;;;;;;5.47;1.45;;;6.10;99.90;;;;;;5023469;28;20581;-72
2023/03/11 12:44:46;;;;;;;3.30;1.60;;;6.20;99.90;;;;;;5039261;28;20048;-71
2023/03/11 12:47:12;;;;;;;2.22;0.90;;;6.30;99.90;;;;;;5048514;28;20044;-71
2023/03/11 12:49:48;;;;;;;5.80;1.70;;;6.40;99.20;;;;;;5039697;28;20118;-71
2023/03/11 12:52:25;;;;;;;6.33;1.77;;;6.50;99.40;;;;;;4689003;28;10001132;-71
2023/03/11 12:55:00;;;;;;;4.13;1.05;;;6.40;99.90;;;;;;5035784;28;20036;-72
2023/03/11 12:57:47;;;;;;;2.55;1.00;;;6.30;99.90;;;;;;5030389;28;20171;-71
2023/03/11 13:00:59;;;;;;;5.28;1.02;;;6.30;99.90;;;;;;5031957;28;20040;-72
2023/03/11 13:03:48;;;;;;;5.53;1.42;;;6.20;98.50;;;;;;5028550;28;20036;-72
2023/03/11 13:06:32;;;;;;;3.05;1.23;;;6.10;99.90;;;;;;5034041;28;20033;-71
2023/03/11 13:08:59;;;;;;;3.40;1.00;;;6.10;99.90;;;;;;5039870;28;20049;-72
2023/03/11 13:11:40;;;;;;;6.72;1.23;;;6.00;98.80;;;;;;5031224;28;20025;-72
2023/03/11 13:14:29;;;;;;;4.38;1.20;;;5.90;98.30;;;;;;5039731;28;20108;-72
2023/03/11 13:17:16;;;;;;;4.90;1.17;;;5.80;98.30;;;;;;5038360;28;20032;-71
2023/03/11 13:19:50;;;;;;;3.70;1.58;;;5.80;99.90;;;;;;5034238;28;20395;-71
2023/03/11 13:22:42;;;;;;;3.40;0.93;;;5.80;99.80;;;;;;5044548;28;20017;-71
2023/03/11 13:25:27;;;;;;;2.15;0.90;;;5.70;99.20;;;;;;5043796;28;20500;-71
2023/03/11 13:28:03;;;;;;;5.10;0.90;;;5.80;99.30;;;;;;5047867;28;20037;-71
2023/03/11 13:30:37;;;;;;;3.05;1.00;;;5.80;99.60;;;;;;5037469;28;20109;-72
2023/03/11 13:33:16;;;;;;;2.67;0.90;;;5.80;98.20;;;;;;5035440;28;20028;-71